Time;durP1;ratioP1;P1;durP2;ratioP2;P2;SDS_P1;SDS_P2;PMS_P1;PMS_P2;Temp;Humidity;BMP_temperature;BMP_pressure;BME280_temperature;BME280_humidity;BME280_pressure;Samples;Min_cycle;Max_cycle;Signal;HPM_P1;HPM_P2
2023/07/29 00:01:42;;;;;;;3.10;2.47;;;;;;;24.29;89.79;98188.59;5020958;27;102696;-68
2023/07/29 00:04:10;;;;;;;3.40;3.10;;;;;;;24.06;91.87;98188.16;5002805;28;104228;-67
2023/07/29 00:06:38;;;;;;;3.30;2.30;;;;;;;24.28;91.20;98176.13;5021919;28;103517;-67
2023/07/29 00:09:06;;;;;;;2.22;2.03;;;;;;;24.52;90.32;98178.16;5016028;28;103600;-68
2023/07/29 00:11:34;;;;;;;4.07;2.63;;;;;;;24.39;90.04;98183.59;5016601;28;104221;-61
2023/07/29 00:14:03;;;;;;;3.63;2.97;;;;;;;24.28;90.87;98180.72;5019528;28;103776;-67
2023/07/29 00:16:32;;;;;;;2.93;2.50;;;;;;;24.13;91.11;98167.44;5021461;28;103256;-67
2023/07/29 00:19:01;;;;;;;3.70;3.28;;;;;;;23.88;92.93;98166.38;5019558;28;102647;-61
2023/07/29 00:21:29;;;;;;;6.00;2.38;;;;;;;24.17;92.56;98165.97;5021219;28;103664;-61
2023/07/29 00:23:58;;;;;;;2.58;1.95;;;;;;;24.29;91.56;98169.69;5019961;28;103091;-67
2023/07/29 00:26:28;;;;;;;2.77;2.20;;;;;;;24.35;92.62;98171.56;5018894;28;103541;-66
2023/07/29 00:28:56;;;;;;;2.10;1.93;;;;;;;24.63;90.81;98168.56;4999291;28;102833;-66
2023/07/29 00:31:24;;;;;;;2.78;2.30;;;;;;;24.65;90.73;98167.31;5022182;28;103094;-68
2023/07/29 00:33:58;;;;;;;5.68;2.70;;;;;;;24.57;91.21;98172.97;5001360;28;103441;-67
2023/07/29 00:36:26;;;;;;;2.90;2.20;;;;;;;24.58;91.46;98166.53;4997963;28;103203;-68
2023/07/29 00:38:56;;;;;;;3.00;2.40;;;;;;;24.57;91.23;98172.97;5001157;28;102695;-68
2023/07/29 00:41:27;;;;;;;2.63;2.22;;;;;;;24.65;90.50;98172.72;5021437;28;103920;-67
2023/07/29 00:43:57;;;;;;;3.03;2.13;;;;;;;24.62;90.67;98172.31;5001231;28;104189;-68
2023/07/29 00:46:25;;;;;;;2.80;1.60;;;;;;;24.79;89.97;98163.56;5000510;28;103076;-68
2023/07/29 00:48:53;;;;;;;3.10;1.83;;;;;;;24.87;89.82;98153.56;5000751;28;102771;-68
2023/07/29 00:51:25;;;;;;;1.77;1.58;;;;;;;24.90;89.10;98163.97;4999931;28;103789;-67
2023/07/29 00:53:53;;;;;;;1.98;1.77;;;;;;;24.89;89.15;98156.88;5020098;28;104007;-68
2023/07/29 00:56:21;;;;;;;4.25;2.00;;;;;;;24.95;88.42;98161.44;5003257;28;103919;-68
2023/07/29 00:58:49;;;;;;;1.77;1.67;;;;;;;24.95;88.19;98158.72;5019285;28;103214;-68
2023/07/29 01:01:20;;;;;;;1.95;1.55;;;;;;;25.00;88.20;98161.63;5020596;28;102939;-67
2023/07/29 01:03:48;;;;;;;2.35;2.08;;;;;;;24.69;89.82;98156.94;5017098;28;104229;-67
2023/07/29 01:06:27;;;;;;;2.30;2.10;;;;;;;24.67;89.67;98164.44;5021275;28;103313;-68
2023/07/29 01:09:03;;;;;;;3.20;2.28;;;;;;;24.55;90.40;98156.16;4998937;28;102792;-68
2023/07/29 01:11:42;;;;;;;1.70;1.60;;;;;;;24.69;89.86;98152.38;5000406;28;102990;-68
2023/07/29 01:14:22;;;;;;;2.38;2.03;;;;;;;24.91;88.30;98143.97;5015393;28;103792;-67
2023/07/29 01:16:53;;;;;;;1.52;1.42;;;;;;;25.01;87.93;98142.47;5014195;27;103322;-68
2023/07/29 01:19:43;;;;;;;2.47;1.90;;;;;;;24.88;88.10;98147.09;5002379;28;102767;-67
2023/07/29 01:22:12;;;;;;;4.75;2.20;;;;;;;24.59;89.47;98146.56;5003081;28;104001;-68
2023/07/29 01:24:41;;;;;;;3.35;1.80;;;;;;;24.65;89.65;98145.72;5019523;28;103870;-68
2023/07/29 01:27:09;;;;;;;2.28;1.90;;;;;;;24.37;91.48;98147.88;5015783;28;103276;-68
2023/07/29 01:29:38;;;;;;;2.10;1.90;;;;;;;24.68;90.29;98144.47;5017515;28;103746;-68
2023/07/29 01:32:14;;;;;;;2.05;1.85;;;;;;;24.72;89.34;98143.00;5018516;28;102978;-68
2023/07/29 01:34:48;;;;;;;3.25;2.10;;;;;;;24.73;89.71;98145.47;5001314;28;104528;-68
2023/07/29 01:37:23;;;;;;;3.28;2.00;;;;;;;24.61;90.19;98136.41;5003188;28;104211;-61
2023/07/29 01:39:57;;;;;;;2.17;1.95;;;;;;;24.57;89.40;98137.84;5001092;28;102634;-61
2023/07/29 01:42:26;;;;;;;3.23;2.23;;;;;;;24.56;90.02;98128.09;5019862;28;104076;-61
2023/07/29 01:44:57;;;;;;;3.88;2.20;;;;;;;24.41;90.41;98127.53;4997295;28;104060;-61
2023/07/29 01:47:26;;;;;;;2.17;1.98;;;;;;;24.53;90.48;98136.63;5021382;28;103331;-61
2023/07/29 01:49:55;;;;;;;2.33;1.85;;;;;;;24.74;89.20;98130.94;5017599;28;102769;-61
2023/07/29 01:52:23;;;;;;;2.63;2.00;;;;;;;24.64;89.11;98138.69;4996097;28;102842;-61
2023/07/29 01:54:53;;;;;;;2.10;1.88;;;;;;;24.77;89.10;98122.41;4998248;28;104714;-68
2023/07/29 01:57:21;;;;;;;3.67;2.33;;;;;;;24.61;88.79;98127.47;4999085;28;102975;-60
2023/07/29 01:59:51;;;;;;;1.80;1.60;;;;;;;24.71;89.61;98123.25;4998464;28;103016;-61
2023/07/29 02:02:19;;;;;;;1.70;1.50;;;;;;;24.83;88.72;98118.06;4999817;28;103712;-61
2023/07/29 02:04:51;;;;;;;2.03;1.80;;;;;;;24.88;88.02;98112.81;5015399;28;103182;-61
2023/07/29 02:07:19;;;;;;;2.72;2.40;;;;;;;24.61;88.48;98106.69;4998897;28;106199;-61
2023/07/29 02:09:47;;;;;;;3.10;2.35;;;;;;;23.93;93.02;98113.47;4999508;28;102778;-61
2023/07/29 02:12:17;;;;;;;3.20;2.40;;;;;;;23.52;94.45;98116.38;5021137;28;103146;-61
2023/07/29 02:14:45;;;;;;;2.33;2.13;;;;;;;23.97;93.66;98111.19;5015259;28;103260;-61
2023/07/29 02:17:13;;;;;;;2.33;2.10;;;;;;;23.88;92.73;98110.59;5001165;28;104211;-61
2023/07/29 02:19:41;;;;;;;3.80;2.30;;;;;;;23.64;93.48;98109.34;5000871;28;102800;-61
2023/07/29 02:22:14;;;;;;;3.10;2.30;;;;;;;23.49;96.67;98100.66;4996816;28;104666;-61
2023/07/29 02:24:44;;;;;;;2.15;1.90;;;;;;;23.96;94.32;98110.38;5017419;27;104065;-61
2023/07/29 02:27:12;;;;;;;3.95;2.55;;;;;;;23.27;97.00;98101.81;4996819;28;103450;-62
2023/07/29 02:29:42;;;;;;;2.80;2.38;;;;;;;23.32;98.13;98102.03;5019034;28;103161;-68
2023/07/29 02:32:10;;;;;;;1.50;1.40;;;;;;;24.01;95.27;98101.63;4998476;28;103239;-68
2023/07/29 02:34:38;;;;;;;2.65;2.10;;;;;;;23.51;96.87;98109.34;5016461;28;104461;-68
2023/07/29 02:37:06;;;;;;;2.40;2.20;;;;;;;22.74;100.00;98105.41;5000253;28;105814;-68
2023/07/29 02:39:34;;;;;;;3.35;2.30;;;;;;;22.45;100.00;98104.66;4998342;28;102831;-62
2023/07/29 02:42:05;;;;;;;2.72;2.35;;;;;;;23.04;100.00;98109.44;5018667;28;104165;-62
2023/07/29 02:44:34;;;;;;;4.90;2.25;;;;;;;23.72;97.46;98104.78;4996567;28;104132;-62
2023/07/29 02:47:03;;;;;;;2.63;1.80;;;;;;;24.14;94.45;98104.34;5014955;28;103211;-62
2023/07/29 02:49:31;;;;;;;2.05;1.65;;;;;;;24.36;92.83;98103.06;4997133;28;103077;-61
2023/07/29 02:51:59;;;;;;;2.17;1.80;;;;;;;24.46;92.30;98095.31;4998575;28;102754;-62
2023/07/29 02:54:27;;;;;;;1.70;1.40;;;;;;;24.55;91.25;98091.34;4996523;28;104200;-62
2023/07/29 02:56:56;;;;;;;2.60;1.80;;;;;;;24.57;91.16;98094.66;4997962;28;105460;-67
2023/07/29 02:59:24;;;;;;;3.13;2.35;;;;;;;24.55;90.47;98090.50;4999237;28;103053;-68
2023/07/29 03:01:53;;;;;;;2.58;1.80;;;;;;;24.58;90.50;98093.63;5018769;28;102732;-68
2023/07/29 03:04:23;;;;;;;2.67;2.00;;;;;;;24.57;90.32;98089.25;4996537;28;104152;-68
2023/07/29 03:06:52;;;;;;;2.40;2.10;;;;;;;24.56;89.94;98087.59;5000178;28;105389;-68
2023/07/29 03:09:20;;;;;;;2.40;2.20;;;;;;;24.49;90.63;98081.41;4994565;28;102978;-68
2023/07/29 03:11:48;;;;;;;2.97;2.00;;;;;;;24.54;90.22;98070.78;5014368;28;102703;-68
2023/07/29 03:14:17;;;;;;;2.13;1.93;;;;;;;24.56;89.77;98071.38;4999355;28;104192;-68
2023/07/29 03:16:45;;;;;;;3.20;2.17;;;;;;;24.41;90.03;98073.53;5014458;28;103382;-68
2023/07/29 03:19:13;;;;;;;2.75;2.10;;;;;;;24.38;90.42;98073.97;4993591;28;102729;-68
2023/07/29 03:21:45;;;;;;;1.90;1.80;;;;;;;24.45;89.37;98073.94;4996079;28;103183;-68
2023/07/29 03:24:13;;;;;;;2.65;2.10;;;;;;;24.32;89.66;98063.19;5015880;28;103504;-68
2023/07/29 03:26:41;;;;;;;3.03;2.20;;;;;;;23.83;92.31;98074.50;4992924;28;104191;-68
2023/07/29 03:29:13;;;;;;;5.30;2.80;;;;;;;23.17;94.70;98068.22;5012676;28;102783;-68
2023/07/29 03:31:41;;;;;;;3.60;2.38;;;;;;;23.32;97.01;98067.00;5016140;28;103669;-67
2023/07/29 03:34:11;;;;;;;4.40;2.50;;;;;;;23.64;94.90;98062.66;4993690;28;104378;-67
2023/07/29 03:36:40;;;;;;;3.10;2.30;;;;;;;23.57;95.05;98065.38;4994008;27;103232;-66
2023/07/29 03:39:10;;;;;;;3.97;2.20;;;;;;;23.63;94.58;98069.91;4984380;28;102783;-65
2023/07/29 03:41:37;;;;;;;3.05;1.85;;;;;;;23.32;96.94;98061.63;4997413;28;103831;-61
2023/07/29 03:44:05;;;;;;;2.43;2.13;;;;;;;23.26;98.19;98067.84;5015181;28;104095;-61
2023/07/29 03:46:35;;;;;;;2.00;1.70;;;;;;;23.72;95.67;98072.44;5001169;28;105151;-61
2023/07/29 03:49:06;;;;;;;2.63;1.90;;;;;;;23.55;97.11;98062.03;4996532;28;103053;-61
2023/07/29 03:51:35;;;;;;;2.50;1.80;;;;;;;23.46;97.34;98063.31;5013719;28;102794;-61
2023/07/29 03:54:03;;;;;;;1.83;1.60;;;;;;;23.84;96.25;98073.44;5014395;28;103278;-61
2023/07/29 03:56:35;;;;;;;2.63;1.63;;;;;;;24.23;93.54;98066.13;4994667;28;104610;-61
2023/07/29 03:59:05;;;;;;;1.70;1.60;;;;;;;23.96;95.27;98069.06;4999917;28;102843;-61
2023/07/29 04:01:34;;;;;;;2.00;1.70;;;;;;;24.09;94.48;98074.41;4999742;28;103011;-61
2023/07/29 04:04:02;;;;;;;3.50;2.00;;;;;;;23.58;96.37;98079.66;5018108;28;104600;-60
2023/07/29 04:06:33;;;;;;;3.80;1.92;;;;;;;23.55;96.40;98072.03;4988681;28;105328;-60
2023/07/29 04:09:03;;;;;;;5.55;2.00;;;;;;;23.55;97.85;98072.81;5011741;28;102705;-60
2023/07/29 04:11:34;;;;;;;3.08;1.98;;;;;;;23.53;98.12;98061.44;4997633;28;103590;-60
2023/07/29 04:14:03;;;;;;;2.20;2.00;;;;;;;23.34;99.73;98064.94;5016935;28;103617;-59
2023/07/29 04:16:33;;;;;;;4.28;1.92;;;;;;;23.77;96.76;98059.97;4998559;28;104556;-64
2023/07/29 04:19:06;;;;;;;3.15;2.30;;;;;;;22.68;100.00;98065.84;5012512;28;103681;-62
2023/07/29 04:21:35;;;;;;;2.95;2.30;;;;;;;22.53;100.00;98066.81;4993840;28;104247;-61
2023/07/29 04:24:06;;;;;;;3.55;2.45;;;;;;;22.50;100.00;98064.50;4998219;28;104414;-61
2023/07/29 04:26:38;;;;;;;1.65;1.55;;;;;;;23.47;100.00;98064.13;4996597;28;103333;-61
2023/07/29 04:29:07;;;;;;;2.20;1.60;;;;;;;23.83;98.78;98064.50;5019824;28;102615;-61
2023/07/29 04:31:39;;;;;;;3.20;2.20;;;;;;;23.79;97.49;98073.25;5000639;28;103804;-58
2023/07/29 04:34:09;;;;;;;2.78;2.05;;;;;;;23.54;98.80;98079.28;5019795;28;103685;-57
2023/07/29 04:36:40;;;;;;;2.20;2.00;;;;;;;23.61;98.82;98087.34;5000417;28;103012;-60
2023/07/29 04:39:10;;;;;;;3.10;2.20;;;;;;;23.66;98.46;98080.28;4994784;28;102897;-60
2023/07/29 04:41:43;;;;;;;2.03;1.80;;;;;;;24.15;96.99;98084.41;4995021;27;104053;-60
2023/07/29 04:44:14;;;;;;;3.55;2.10;;;;;;;24.05;96.81;98089.38;5011520;27;103349;-60
2023/07/29 04:46:46;;;;;;;1.63;1.40;;;;;;;24.09;96.47;98098.69;5016345;27;103275;-61
2023/07/29 04:49:16;;;;;;;2.47;1.52;;;;;;;24.31;95.60;98110.94;4996385;28;102907;-62
2023/07/29 04:51:45;;;;;;;2.10;1.90;;;;;;;24.37;94.86;98110.09;4997628;28;102733;-62
2023/07/29 04:54:20;;;;;;;2.17;1.90;;;;;;;24.17;95.35;98112.84;5019466;28;103445;-62
2023/07/29 04:56:52;;;;;;;1.92;1.60;;;;;;;24.39;95.18;98120.69;5000400;28;103220;-63
2023/07/29 04:59:21;;;;;;;1.77;1.40;;;;;;;24.54;94.18;98110.44;5017094;27;102917;-63
2023/07/29 05:01:50;;;;;;;2.25;1.58;;;;;;;24.67;93.83;98102.31;5000404;28;103629;-62
2023/07/29 05:04:22;;;;;;;2.42;1.90;;;;;;;24.52;93.72;98091.78;5016412;28;103215;-62
2023/07/29 05:06:53;;;;;;;2.00;1.80;;;;;;;24.66;93.89;98087.97;5013885;28;104494;-61
2023/07/29 05:09:23;;;;;;;3.28;1.88;;;;;;;24.68;93.85;98091.28;5020330;28;102732;-61
2023/07/29 05:11:59;;;;;;;3.03;1.88;;;;;;;24.51;94.48;98079.31;4994700;28;102785;-61
2023/07/29 05:14:29;;;;;;;2.30;2.10;;;;;;;24.44;94.93;98083.91;4998783;28;104370;-61
2023/07/29 05:17:02;;;;;;;2.85;2.25;;;;;;;24.22;95.73;98075.25;5015961;27;103868;-61
2023/07/29 05:19:34;;;;;;;3.47;2.20;;;;;;;24.13;97.53;98064.91;5015235;28;102671;-62
2023/07/29 05:22:06;;;;;;;3.60;2.30;;;;;;;24.12;98.01;98052.44;5019920;28;102680;-62
2023/07/29 05:24:39;;;;;;;2.85;1.95;;;;;;;23.94;99.47;98055.81;5000045;28;103593;-62
2023/07/29 05:27:13;;;;;;;1.92;1.80;;;;;;;24.12;99.35;98061.38;5010875;28;103314;-62
2023/07/29 05:29:44;;;;;;;2.28;1.83;;;;;;;24.40;97.26;98065.63;5015855;28;102666;-62
2023/07/29 05:32:15;;;;;;;2.63;2.00;;;;;;;24.44;97.24;98077.69;5016244;28;103578;-62
2023/07/29 05:34:46;;;;;;;2.13;1.92;;;;;;;24.18;98.54;98081.28;5013003;27;102978;-62
2023/07/29 05:37:17;;;;;;;1.80;1.70;;;;;;;24.60;96.72;98083.44;4993885;28;103459;-62
2023/07/29 05:39:48;;;;;;;2.47;2.10;;;;;;;24.27;96.90;98082.72;4997689;28;102731;-64
2023/07/29 05:42:20;;;;;;;3.10;2.00;;;;;;;24.38;95.23;98087.47;5018743;28;103069;-64
2023/07/29 05:44:50;;;;;;;2.75;1.92;;;;;;;24.86;94.64;98090.63;5014214;27;104423;-64
2023/07/29 05:47:21;;;;;;;3.37;1.80;;;;;;;24.71;94.99;98093.56;5015289;28;103180;-62
2023/07/29 05:49:52;;;;;;;4.15;2.30;;;;;;;24.45;97.26;98090.16;5012384;28;102670;-62
2023/07/29 05:52:22;;;;;;;2.30;1.92;;;;;;;24.63;96.34;98083.00;5014836;28;102671;-64
2023/07/29 05:54:54;;;;;;;2.20;2.00;;;;;;;24.72;96.27;98084.41;5015687;28;103295;-64
2023/07/29 05:57:26;;;;;;;2.13;1.90;;;;;;;25.03;94.13;98090.94;5018945;28;103230;-64
2023/07/29 05:59:57;;;;;;;2.13;2.00;;;;;;;24.91;95.97;98085.38;5010665;28;102690;-64
2023/07/29 06:02:29;;;;;;;3.07;2.10;;;;;;;25.27;93.62;98073.91;5015592;27;103897;-64
2023/07/29 06:05:03;;;;;;;3.53;2.23;;;;;;;24.92;95.76;98062.75;5009256;27;103073;-64
2023/07/29 06:07:34;;;;;;;2.90;2.03;;;;;;;25.23;94.83;98073.56;5008792;27;103140;-64
2023/07/29 06:10:07;;;;;;;2.55;2.10;;;;;;;25.57;92.77;98058.72;5010948;27;102707;-64
2023/07/29 06:12:44;;;;;;;1.83;1.73;;;;;;;25.58;93.94;98073.09;5015395;28;102911;-64
2023/07/29 06:15:17;;;;;;;1.98;1.70;;;;;;;26.09;91.24;98065.53;4996449;28;103049;-64
2023/07/29 06:17:50;;;;;;;2.65;1.98;;;;;;;26.09;90.95;98065.53;5016739;28;103001;-64
2023/07/29 06:20:25;;;;;;;2.35;1.80;;;;;;;26.09;91.02;98076.34;5007425;28;102799;-64
2023/07/29 06:22:57;;;;;;;2.80;1.93;;;;;;;26.15;90.37;98058.44;4995126;28;103370;-64
2023/07/29 06:25:28;;;;;;;2.45;1.70;;;;;;;26.24;92.31;98076.03;5017447;28;103730;-65
2023/07/29 06:28:00;;;;;;;2.45;1.95;;;;;;;26.35;89.93;98077.97;5005627;28;103379;-64
2023/07/29 06:30:30;;;;;;;4.05;2.40;;;;;;;26.24;90.60;98067.91;4996015;28;103059;-65
2023/07/29 06:33:00;;;;;;;3.33;2.00;;;;;;;26.30;90.64;98070.53;5012386;28;102865;-64
2023/07/29 06:35:30;;;;;;;2.45;2.25;;;;;;;26.21;91.40;98076.47;5008438;28;104185;-65
2023/07/29 06:38:00;;;;;;;3.60;2.30;;;;;;;26.10;92.25;98075.31;5017608;28;102911;-64
2023/07/29 06:40:31;;;;;;;2.50;2.30;;;;;;;26.03;91.50;98079.13;5013066;28;102887;-65
2023/07/29 06:43:03;;;;;;;2.50;2.30;;;;;;;26.00;92.05;98075.00;5018740;28;102747;-64
2023/07/29 06:45:32;;;;;;;2.80;2.00;;;;;;;26.13;91.86;98084.88;5009495;28;103047;-65
2023/07/29 06:48:02;;;;;;;2.20;2.00;;;;;;;26.08;91.73;98087.41;4993236;27;103069;-62
2023/07/29 06:50:32;;;;;;;2.33;2.10;;;;;;;26.00;92.29;98091.22;5012024;28;102946;-62
2023/07/29 06:53:02;;;;;;;2.95;2.15;;;;;;;25.91;91.89;98087.97;5015255;28;102847;-62
2023/07/29 06:55:32;;;;;;;3.78;2.50;;;;;;;25.67;93.41;98088.00;4992970;28;103958;-63
2023/07/29 06:58:03;;;;;;;3.20;2.00;;;;;;;25.86;92.58;98087.81;5011933;28;103657;-63
2023/07/29 07:00:35;;;;;;;3.58;2.20;;;;;;;25.72;92.50;98101.69;5015133;28;102724;-63
2023/07/29 07:03:04;;;;;;;1.83;1.73;;;;;;;26.07;92.03;98096.59;5017553;28;102947;-63
2023/07/29 07:05:34;;;;;;;2.25;2.05;;;;;;;26.10;91.46;98096.97;4997048;28;104367;-62
2023/07/29 07:08:04;;;;;;;2.13;1.80;;;;;;;26.03;91.84;98100.78;5010649;28;103340;-63
2023/07/29 07:10:35;;;;;;;2.58;2.00;;;;;;;25.52;93.59;98118.06;5015596;28;102619;-63
2023/07/29 07:13:05;;;;;;;2.70;2.20;;;;;;;25.56;93.31;98113.88;5016532;28;103924;-63
2023/07/29 07:15:37;;;;;;;2.25;1.92;;;;;;;25.72;92.25;98121.44;5014650;28;103371;-63
2023/07/29 07:18:14;;;;;;;3.07;2.30;;;;;;;25.78;92.02;98125.97;5014330;28;103363;-61
2023/07/29 07:20:45;;;;;;;5.22;2.60;;;;;;;25.32;95.22;98122.75;5018773;28;102811;-63
2023/07/29 07:23:15;;;;;;;2.30;2.10;;;;;;;25.56;93.84;98123.88;5015556;28;102888;-64
2023/07/29 07:25:46;;;;;;;2.42;2.10;;;;;;;25.30;96.17;98112.16;5014957;28;104802;-64
2023/07/29 07:28:16;;;;;;;4.60;2.50;;;;;;;25.27;96.54;98111.75;5018029;28;102968;-64
2023/07/29 07:30:47;;;;;;;3.00;2.30;;;;;;;25.34;97.27;98109.88;5017102;28;102644;-63
2023/07/29 07:33:17;;;;;;;2.70;2.00;;;;;;;25.88;93.99;98115.47;5000713;28;103614;-63
2023/07/29 07:35:47;;;;;;;2.60;2.00;;;;;;;26.10;93.13;98117.78;4996694;28;104835;-63
2023/07/29 07:38:16;;;;;;;3.10;1.70;;;;;;;26.16;92.12;98127.75;5017070;28;103280;-64
2023/07/29 07:40:56;;;;;;;2.45;1.70;;;;;;;26.18;92.11;98125.66;5013975;28;102834;-63
2023/07/29 07:43:28;;;;;;;2.17;1.50;;;;;;;26.07;92.86;98120.94;4994426;28;102778;-63
2023/07/29 07:46:03;;;;;;;1.88;1.67;;;;;;;26.12;93.52;98116.50;5016088;28;104776;-63
2023/07/29 07:48:35;;;;;;;2.28;1.70;;;;;;;25.93;95.90;98114.81;5017508;28;103483;-63
2023/07/29 07:51:13;;;;;;;2.97;1.90;;;;;;;26.02;94.61;98121.59;5001235;28;103032;-63
2023/07/29 07:53:42;;;;;;;1.70;1.30;;;;;;;26.41;92.34;98115.00;5015324;27;102770;-63
2023/07/29 07:56:12;;;;;;;1.77;1.35;;;;;;;26.25;91.77;98116.41;5005735;28;103950;-61
2023/07/29 07:58:44;;;;;;;1.70;1.35;;;;;;;26.48;90.97;98121.16;5012188;28;103194;-62
2023/07/29 08:01:15;;;;;;;2.05;1.60;;;;;;;26.77;89.88;98108.72;5012174;28;102796;-63
2023/07/29 08:03:48;;;;;;;1.80;1.67;;;;;;;26.56;91.93;98106.47;5017651;28;102668;-63
2023/07/29 08:06:21;;;;;;;1.73;1.63;;;;;;;27.06;90.53;98102.50;5015304;28;103041;-64
2023/07/29 08:08:53;;;;;;;2.10;1.50;;;;;;;27.02;89.98;98113.00;4996408;28;103097;-64
2023/07/29 08:11:26;;;;;;;2.00;1.60;;;;;;;26.31;91.21;98126.34;5017733;27;102807;-64
2023/07/29 08:14:02;;;;;;;3.15;1.25;;;;;;;26.25;90.48;98131.81;4994896;28;103213;-64
2023/07/29 08:16:36;;;;;;;2.85;1.50;;;;;;;26.14;90.58;98144.22;5019320;28;103358;-61
2023/07/29 08:19:10;;;;;;;1.53;1.37;;;;;;;26.28;90.33;98136.78;5020943;28;102984;-63
2023/07/29 08:21:47;;;;;;;1.65;1.20;;;;;;;26.38;91.12;98143.34;5022807;27;102640;-64
2023/07/29 08:24:17;;;;;;;1.80;1.13;;;;;;;26.26;91.51;98155.13;4995730;28;102796;-62
2023/07/29 08:26:48;;;;;;;1.55;1.20;;;;;;;26.06;91.91;98149.03;5021707;28;103000;-62
2023/07/29 08:29:20;;;;;;;2.22;1.20;;;;;;;26.45;91.98;98144.09;4994163;28;104118;-62
2023/07/29 08:31:51;;;;;;;1.13;1.03;;;;;;;26.57;90.86;98132.50;5012688;28;102886;-64
2023/07/29 08:34:21;;;;;;;1.33;1.17;;;;;;;26.74;88.98;98141.69;5018316;28;103701;-64
2023/07/29 08:36:52;;;;;;;1.30;1.08;;;;;;;26.87;88.08;98136.13;5014826;28;103749;-65
2023/07/29 08:39:23;;;;;;;2.53;1.20;;;;;;;26.84;87.80;98134.72;5018349;28;103144;-63
2023/07/29 08:42:04;;;;;;;1.17;1.02;;;;;;;26.89;88.00;98124.00;5012364;28;103088;-63
2023/07/29 08:44:43;;;;;;;1.80;1.10;;;;;;;27.59;85.21;98127.81;5019936;28;103080;-65
2023/07/29 08:47:35;;;;;;;1.40;1.30;;;;;;;26.90;86.61;98131.09;5014033;28;103071;-65
2023/07/29 08:50:41;;;;;;;1.80;1.23;;;;;;;27.97;83.92;98132.84;5026312;27;103045;-65
2023/07/29 08:53:27;;;;;;;3.83;1.30;;;;;;;28.62;83.01;98127.28;5028784;28;102827;-65
2023/07/29 08:55:56;;;;;;;2.70;1.23;;;;;;;28.79;81.68;98136.38;5025650;28;102771;-63
2023/07/29 09:03:29;;;;;;;1.70;1.30;;;;;;;29.77;77.82;98128.75;5024267;28;103392;-65
2023/07/29 09:06:29;;;;;;;1.30;1.20;;;;;;;28.47;79.47;98133.22;5016804;28;102628;-63
2023/07/29 09:09:54;;;;;;;3.42;1.20;;;;;;;28.90;78.97;98137.41;4997557;28;102872;-63
2023/07/29 09:13:12;;;;;;;2.10;1.23;;;;;;;29.03;78.84;98118.91;5018934;28;103043;-62
2023/07/29 09:16:06;;;;;;;1.10;1.00;;;;;;;28.30;78.07;98123.31;5014335;28;103143;-62
2023/07/29 09:19:16;;;;;;;1.10;1.00;;;;;;;29.33;75.98;98124.97;5016109;28;102684;-63
2023/07/29 09:22:34;;;;;;;1.92;1.10;;;;;;;29.72;77.38;98114.22;5017400;28;102665;-64
2023/07/29 09:25:50;;;;;;;1.47;1.00;;;;;;;29.32;77.09;98114.34;4988853;28;107423;-64
2023/07/29 09:29:06;;;;;;;1.75;1.00;;;;;;;30.55;71.23;98116.91;5020256;28;103043;-63
2023/07/29 09:31:51;;;;;;;1.45;0.90;;;;;;;30.65;71.12;98102.59;5022256;28;102656;-63
2023/07/29 09:38:19;;;;;;;2.80;1.15;;;;;;;31.55;68.75;98103.63;5016822;28;102968;-65
2023/07/29 09:41:01;;;;;;;1.27;1.17;;;;;;;30.56;71.14;98098.66;5019201;28;103147;-62
2023/07/29 09:43:44;;;;;;;1.40;1.00;;;;;;;30.62;70.21;98111.25;5024877;28;102996;-64
2023/07/29 09:46:30;;;;;;;2.13;1.30;;;;;;;29.74;71.02;98112.06;5018188;28;102695;-63
2023/07/29 09:49:14;;;;;;;1.10;0.97;;;;;;;29.81;71.00;98113.56;4996626;28;103116;-63
2023/07/29 09:51:53;;;;;;;1.63;1.10;;;;;;;29.47;70.76;98100.19;4996932;28;104208;-63
2023/07/29 09:54:41;;;;;;;1.10;1.00;;;;;;;29.79;72.11;98098.53;4992246;28;102875;-63
2023/07/29 09:57:47;;;;;;;1.77;1.20;;;;;;;30.49;70.10;98098.81;5000824;28;102828;-65
2023/07/29 10:00:48;;;;;;;1.27;1.17;;;;;;;30.06;70.68;98093.28;5016272;28;104025;-63
2023/07/29 10:03:36;;;;;;;1.50;1.38;;;;;;;29.16;72.28;98104.22;5014487;28;103682;-63
2023/07/29 10:06:29;;;;;;;1.40;1.30;;;;;;;30.32;69.20;98087.94;5019174;28;103485;-64
2023/07/29 10:09:41;;;;;;;1.75;1.15;;;;;;;30.15;69.97;98092.59;5018422;28;102687;-63
2023/07/29 10:12:27;;;;;;;1.40;1.30;;;;;;;30.84;65.71;98096.56;5015290;28;103748;-63
2023/07/29 10:15:10;;;;;;;1.30;1.00;;;;;;;29.16;73.09;98120.53;4984661;28;103269;-64
2023/07/29 10:17:50;;;;;;;1.90;1.20;;;;;;;28.97;75.95;98128.03;5014926;28;102979;-63
2023/07/29 10:20:28;;;;;;;2.35;1.38;;;;;;;27.90;80.88;98117.75;5016574;28;103103;-63
2023/07/29 10:23:06;;;;;;;1.55;1.33;;;;;;;29.20;77.18;98110.81;5006397;28;103311;-63
2023/07/29 10:25:54;;;;;;;1.27;0.90;;;;;;;28.66;76.07;98121.16;5012368;28;103086;-63
2023/07/29 10:28:36;;;;;;;1.42;1.00;;;;;;;27.50;80.85;98120.28;4991363;28;102740;-65
2023/07/29 10:31:15;;;;;;;1.60;0.83;;;;;;;27.90;77.08;98121.25;5013156;27;103014;-65
2023/07/29 10:34:10;;;;;;;1.00;0.88;;;;;;;27.98;75.98;98123.66;5017015;28;103192;-63
2023/07/29 10:37:09;;;;;;;1.15;0.90;;;;;;;28.40;74.20;98128.97;4999986;28;104063;-65
2023/07/29 10:40:04;;;;;;;1.50;0.90;;;;;;;27.81;76.58;98133.53;5000915;28;103367;-64
2023/07/29 10:43:26;;;;;;;1.55;1.00;;;;;;;27.23;77.78;98132.53;5012166;28;102801;-65
2023/07/29 10:46:27;;;;;;;2.00;1.27;;;;;;;28.94;73.54;98127.72;5017568;28;103112;-63
2023/07/29 10:49:31;;;;;;;1.20;1.10;;;;;;;28.63;74.50;98131.69;5013949;27;102995;-64
2023/07/29 10:55:50;;;;;;;1.20;1.10;;;;;;;29.79;70.10;98129.31;4998774;28;102951;-65
2023/07/29 10:59:39;;;;;;;1.30;0.90;;;;;;;30.88;67.57;98129.56;4998727;28;103080;-64
2023/07/29 11:02:23;;;;;;;2.37;1.20;;;;;;;30.22;67.26;98125.13;5012009;28;103112;-63
2023/07/29 11:05:17;;;;;;;1.40;1.08;;;;;;;29.79;70.28;98114.88;4976458;28;103528;-65
2023/07/29 11:16:11;;;;;;;1.17;1.00;;;;;;;29.45;69.03;98124.06;5022141;28;103350;-67
2023/07/29 11:20:13;;;;;;;2.42;1.70;;;;;;;32.11;64.34;98115.03;5014131;28;103021;-67
2023/07/29 11:23:07;;;;;;;1.63;1.52;;;;;;;30.85;66.19;98130.09;5016015;28;103729;-66
2023/07/29 11:26:01;;;;;;;1.85;1.00;;;;;;;30.28;65.58;98124.94;5017682;28;103101;-67
2023/07/29 11:28:47;;;;;;;1.52;1.10;;;;;;;30.78;64.67;98113.94;5002049;28;102997;-64
2023/07/29 11:31:42;;;;;;;1.48;1.30;;;;;;;30.17;64.97;98117.69;4998895;28;102614;-64
2023/07/29 11:34:20;;;;;;;1.17;1.08;;;;;;;30.27;64.96;98117.84;5010354;28;102844;-64
2023/07/29 11:37:06;;;;;;;1.55;1.38;;;;;;;30.04;65.18;98118.03;5007358;28;103891;-66
2023/07/29 11:39:55;;;;;;;1.30;1.00;;;;;;;31.08;62.06;98102.56;5016592;28;103342;-67
2023/07/29 11:42:36;;;;;;;1.13;1.02;;;;;;;31.28;62.81;98097.34;5022542;28;103119;-67
2023/07/29 11:45:25;;;;;;;2.00;0.90;;;;;;;31.76;60.96;98104.63;5013428;28;102716;-64
2023/07/29 11:48:39;;;;;;;1.67;1.00;;;;;;;31.58;60.29;98106.94;5008685;28;102999;-64
2023/07/29 11:51:26;;;;;;;1.35;0.90;;;;;;;31.83;60.53;98107.16;5014891;28;102951;-64
2023/07/29 11:54:21;;;;;;;1.90;0.93;;;;;;;31.68;61.79;98101.56;4991431;28;103236;-64
2023/07/29 11:57:18;;;;;;;1.60;0.90;;;;;;;32.34;59.14;98100.16;5016301;28;103176;-64
2023/07/29 12:00:25;;;;;;;1.20;1.10;;;;;;;31.75;60.01;98100.25;5020969;28;103865;-65
2023/07/29 12:06:38;;;;;;;1.70;1.10;;;;;;;32.08;60.21;98102.75;5017323;28;102684;-66
2023/07/29 12:09:29;;;;;;;1.27;1.17;;;;;;;31.74;59.74;98095.06;5027783;28;102777;-65
2023/07/29 12:29:32;;;;;;;2.35;1.42;;;;;;;33.29;53.57;98069.69;4924901;28;103080;-64
2023/07/29 12:33:53;;;;;;;1.70;1.40;;;;;;;33.01;53.80;98083.81;4979069;28;102822;-66
2023/07/29 12:37:29;;;;;;;1.75;1.65;;;;;;;32.13;51.77;98071.88;4874408;28;103011;-64
2023/07/29 12:40:49;;;;;;;1.50;1.40;;;;;;;33.07;51.16;98072.63;5001872;28;103000;-67
2023/07/29 12:47:27;;;;;;;2.20;1.30;;;;;;;31.68;50.60;98072.34;4989993;28;103019;-64
2023/07/29 12:54:08;;;;;;;2.20;1.60;;;;;;;34.01;47.83;98071.34;5004616;28;103831;-66
2023/07/29 12:57:25;;;;;;;1.90;1.80;;;;;;;34.32;47.71;98079.25;5022536;28;102991;-67
2023/07/29 13:00:47;;;;;;;1.52;1.15;;;;;;;34.47;45.79;98064.69;4996601;28;102730;-64